ADDS TAF Board (Experimental) INFO Settings
IDs:

KMCI - Kansas City Intl, MO, US

Issued at 0400 UTC 25 Aug 2016
Updated at: 0425 UTC 25 Aug 2016
Time0353Z 25/05Z 25/06Z 25/07Z 25/08Z 25/09Z 25/10Z 25/11Z 25/12Z 25/13Z 25/14Z 25/15Z 25/16Z 25/17Z
Type OBS PRVL PRVL PRVL PRVL PRVL PRVL PRVL PRVL PRVL PRVL PRVL PRVL PRVL
VIS 8 >6 >6 >6 >6 >6 >6 >6 >6 >6 >6 >6 >6 >6
CIG 130 50 50 50 50 50 20 20 20 20 20 50 50 50
Cover OVC BKN BKN BKN BKN BKN BKN BKN BKN BKN BKN BKN BKN BKN
FltCat VFR VFR VFR VFR VFR VFR MVFR MVFR MVFR MVFR MVFR VFR VFR VFR
WX -RA -SHRA VCTS -SHRA VCTS -SHRA VCTS -SHRA VCTS -SHRA VCTS VCSH VCSH VCSH VCSH VCSH -- -- --
WDir 60 60 60 60 60 60 60 60 60 60 60 60 60 60
WSpd 3 5 5 5 5 5 7 7 7 7 7 7 7 7
WGst -- -- -- -- -- -- -- -- -- -- -- -- -- --
R01/19
XWnd -2 -4 -4 -4 -4 -4 -5 -5 -5 -5 -5 -5 -5 -5
HWnd 2 3 3 3 3 3 5 5 5 5 5 5 5 5
R09/27
XWnd 2 3 3 3 3 3 4 4 4 4 4 4 4 4
HWnd 2 4 4 4 4 4 6 6 6 6 6 6 6 6

NOTE: TEMPO conditions in [brackets]. Keep in mind TEMPO conditions might be better (lower impact) than prevailing conditions.

Raw TAF
KMCI 250400Z 2504/2524 06005KT P6SM -SHRA VCTS SCT015 BKN050CB
  FM251000 06007KT P6SM VCSH BKN020 BKN080
  FM251500 06007KT P6SM BKN050
  FM252100 06008KT P6SM VCTS BKN060CB


Raw METAR
KMCI 250353Z 06003KT 8SM -RA FEW041 FEW080 OVC130 22/20 A3004 RMK AO2 LTG DSNT E AND SE SLP161 CB DSNT NE AND SE P0003 T02220200
KMCI 250303Z 08006KT 10SM -RA SCT042 BKN120 22/20 A3003 RMK AO2 LTG DSNT NE-S CB DSNT NE-S P0001 T02220200
KMCI 250253Z 12005KT 10SM VCTS -RA BKN043CB OVC110 22/20 A3003 RMK AO2 LTG DSNT NE-S TSE0159B10E41 SLP160 TS VC NE-SE MOV NE P0005 60025 T02220200 53024
KMCI 250212Z 36005KT 9SM -TSRA FEW009 OVC037CB 22/20 A3002 RMK AO2 LTG DSNT ALQDS TSE0159B10 TS NW-SE MOV NE P0002 T02170200
KMCI 250200Z 36005KT 10SM VCTS -RA SCT009 BKN019 OVC037CB 22/21 A3002 RMK AO2 LTG DSNT ALQDS TSE0159 TS NW-SE MOV NE P0000 T02170206
KMCI 250153Z COR 34005KT 3SM -TSRA BR SCT011 BKN019 OVC037CB 22/20 A3003 RMK AO2 WSHFT 0129 LTG DSNT ALQDS RAB01 TSB17 SLP160 TS N-SE MOV NE P0020 T02170200
KMCI 250146Z 35009KT 3SM R19R/2000VP6000FT TSRA BR SCT011 BKN019 OVC037CB 22/20 A3003 RMK AO2 WSHFT 0129 LTG DSNT ALQDS RAB01 TSB17 TS VC ALQDS MOV NE P0020 T02170200
KMCI 250143Z 01010G21KT 3/4SM R19R/2000VP6000FT +TSRA BR BKN028CB BKN041 OVC100 22/20 A3003 RMK AO2 WSHFT 0129 TWR VIS 3 LTG DSNT ALQDS RAB01 TSB17 TS VC ALQDS MOV NE P0018 T02170200
KMCI 250132Z 33012KT 1 3/4SM R19R/5500VP6000FT -TSRA BR BKN028CB BKN041 OVC100 23/22 A3003 RMK AO2 LTG DSNT ALQDS RAB01 TSB17 TS VC ALQDS MOV NE P0016 T02330217

METAR Board
Radar Display
Forecast Discussion

TAF Board Legend

Potential Impact
Threat None Slight Moderate High
Visibility (sm) ≥5.1 5.1>X≥3 3>X≥1 <1
Ceiling (100 ft) ≥30.1 30.1>X≥10 10>X≥5 <5
Wind Speed (kt) <10 10≤X<20 20≤X<30 ≥30
Wind Gust (kt) <15 15≤X<25 25≤X<35 ≥35
Weather No Wx Reported VCTS,-TS,-FZRA,SN TS,FZRA +TS,+FZRA,+SN